Time;durP1;ratioP1;P1;durP2;ratioP2;P2;SDS_P1;SDS_P2;PMS_P1;PMS_P2;Temp;Humidity;BMP_temperature;BMP_pressure;BME280_temperature;BME280_humidity;BME280_pressure;Samples;Min_cycle;Max_cycle;Signal;HPM_P1;HPM_P2
2021/09/06 00:00:12;;;;;;;18.15;12.20;;;;;;;;;;5019779;28;20045;-76
2021/09/06 00:02:38;;;;;;;24.80;11.90;;;;;;;;;;5054678;28;20047;-77
2021/09/06 00:05:06;;;;;;;29.63;13.27;;;;;;;;;;5053869;28;20033;-77
2021/09/06 00:07:33;;;;;;;19.48;12.88;;;;;;;;;;5038034;28;20032;-77
2021/09/06 00:10:13;;;;;;;24.27;12.63;;;;;;;;;;5049816;28;20103;-77
2021/09/06 00:12:38;;;;;;;22.20;12.10;;;;;;;;;;5034558;28;20033;-77
2021/09/06 00:15:05;;;;;;;22.60;11.27;;;;;;;;;;5035524;28;20037;-77
2021/09/06 00:17:30;;;;;;;35.60;10.90;;;;;;;;;;5017922;28;20029;-77
2021/09/06 00:19:56;;;;;;;34.65;12.20;;;;;;;;;;5035224;28;20133;-77
2021/09/06 00:22:22;;;;;;;25.42;11.52;;;;;;;;;;5017638;28;20033;-77
2021/09/06 00:24:47;;;;;;;28.58;13.15;;;;;;;;;;5017599;28;20140;-77
2021/09/06 00:27:13;;;;;;;43.17;13.43;;;;;;;;;;5034120;28;20376;-77
2021/09/06 00:29:39;;;;;;;24.80;12.20;;;;;;;;;;5035293;28;20034;-76
2021/09/06 00:32:05;;;;;;;19.92;13.13;;;;;;;;;;5033670;28;20033;-77
2021/09/06 00:34:30;;;;;;;18.23;11.45;;;;;;;;;;5017344;28;20085;-77
2021/09/06 00:36:56;;;;;;;19.40;10.98;;;;;;;;;;5017114;28;20415;-76
2021/09/06 00:39:23;;;;;;;18.38;11.38;;;;;;;;;;5045079;28;20075;-76
2021/09/06 00:41:48;;;;;;;19.13;13.13;;;;;;;;;;5053314;28;20249;-76
2021/09/06 00:44:14;;;;;;;19.92;11.98;;;;;;;;;;5037258;28;20059;-77
2021/09/06 00:46:45;;;;;;;23.25;13.20;;;;;;;;;;5037041;28;20029;-76
2021/09/06 00:49:10;;;;;;;25.77;13.52;;;;;;;;;;5036900;28;20124;-76
2021/09/06 00:51:36;;;;;;;18.10;13.30;;;;;;;;;;5053695;28;20179;-76
2021/09/06 00:54:01;;;;;;;20.02;14.18;;;;;;;;;;5053623;28;20064;-76
2021/09/06 00:56:27;;;;;;;26.63;13.75;;;;;;;;;;5036767;28;20033;-76
2021/09/06 00:58:54;;;;;;;17.48;12.93;;;;;;;;;;5033521;28;20037;-76
2021/09/06 01:01:19;;;;;;;23.65;12.73;;;;;;;;;;5049939;28;20475;-76
2021/09/06 01:03:45;;;;;;;19.77;12.18;;;;;;;;;;5016692;28;20056;-76
2021/09/06 01:06:25;;;;;;;35.83;12.85;;;;;;;;;;5033357;28;20025;-76
2021/09/06 01:09:06;;;;;;;19.88;12.93;;;;;;;;;;5033079;28;20052;-76
2021/09/06 01:11:43;;;;;;;29.75;12.65;;;;;;;;;;5033313;28;20452;-76
2021/09/06 01:14:17;;;;;;;18.58;12.43;;;;;;;;;;5017824;28;20029;-76
2021/09/06 01:16:44;;;;;;;20.98;12.30;;;;;;;;;;5034138;28;20035;-76
2021/09/06 01:19:09;;;;;;;18.35;12.88;;;;;;;;;;5016580;28;20447;-76
2021/09/06 01:21:38;;;;;;;25.65;14.00;;;;;;;;;;5032687;28;20021;-76
2021/09/06 01:24:22;;;;;;;;;;;;;;;;;;5033952;28;20119;-76
2021/09/06 01:26:50;;;;;;;21.33;14.00;;;;;;;;;;5016486;28;19913;-76
2021/09/06 01:29:19;;;;;;;30.35;14.65;;;;;;;;;;5033017;28;20075;-76
2021/09/06 01:31:46;;;;;;;26.55;13.57;;;;;;;;;;5055949;28;20055;-77
2021/09/06 01:34:12;;;;;;;24.48;14.13;;;;;;;;;;5056037;28;20052;-77
2021/09/06 01:36:39;;;;;;;25.70;12.82;;;;;;;;;;5072884;28;20041;-77
2021/09/06 01:39:05;;;;;;;32.92;12.68;;;;;;;;;;5046583;28;20119;-76
2021/09/06 01:41:34;;;;;;;19.45;13.27;;;;;;;;;;5036322;28;20081;-77
2021/09/06 01:44:02;;;;;;;17.83;12.68;;;;;;;;;;5051777;28;20053;-77
2021/09/06 01:46:33;;;;;;;18.23;13.23;;;;;;;;;;5035984;28;20498;-77
2021/09/06 01:49:01;;;;;;;17.95;12.50;;;;;;;;;;5036306;28;20383;-76
2021/09/06 01:51:27;;;;;;;15.15;11.63;;;;;;;;;;5035172;28;20037;-76
2021/09/06 01:53:54;;;;;;;17.83;12.90;;;;;;;;;;5051623;28;20029;-76
2021/09/06 01:56:20;;;;;;;21.73;12.98;;;;;;;;;;5052225;28;20039;-76
2021/09/06 01:58:47;;;;;;;20.38;13.48;;;;;;;;;;5052255;28;20515;-76
2021/09/06 02:01:15;;;;;;;19.70;12.45;;;;;;;;;;5052487;28;20025;-76
2021/09/06 02:03:41;;;;;;;21.98;13.05;;;;;;;;;;5048955;28;20486;-76
2021/09/06 02:06:10;;;;;;;19.25;12.82;;;;;;;;;;5072294;28;20039;-75
2021/09/06 02:08:53;;;;;;;28.55;14.48;;;;;;;;;;5072216;28;20036;-76
2021/09/06 02:11:23;;;;;;;19.75;13.02;;;;;;;;;;5057932;28;20516;-76
2021/09/06 02:13:49;;;;;;;15.02;12.02;;;;;;;;;;5035372;28;20442;-77
2021/09/06 02:16:17;;;;;;;15.98;12.00;;;;;;;;;;5052346;28;20031;-77
2021/09/06 02:18:44;;;;;;;19.73;12.13;;;;;;;;;;5052100;28;20065;-77
2021/09/06 02:21:10;;;;;;;21.23;12.38;;;;;;;;;;5052112;28;20056;-77
2021/09/06 02:23:36;;;;;;;19.02;12.82;;;;;;;;;;5035545;28;20044;-76
2021/09/06 02:26:02;;;;;;;22.98;12.20;;;;;;;;;;5035497;28;20056;-76
2021/09/06 02:28:29;;;;;;;21.52;12.77;;;;;;;;;;5051665;28;20036;-76
2021/09/06 02:30:59;;;;;;;21.10;11.90;;;;;;;;;;5051756;28;20558;-76
2021/09/06 02:33:54;;;;;;;43.58;13.13;;;;;;;;;;5047332;28;20045;-76
2021/09/06 02:36:30;;;;;;;21.02;12.45;;;;;;;;;;5036424;28;20383;-76
2021/09/06 02:38:56;;;;;;;18.13;12.52;;;;;;;;;;5051295;28;20037;-76
2021/09/06 02:41:21;;;;;;;23.38;12.23;;;;;;;;;;5035103;28;20028;-76
2021/09/06 02:43:50;;;;;;;25.35;12.57;;;;;;;;;;5035279;28;20033;-76
2021/09/06 02:46:16;;;;;;;19.83;14.13;;;;;;;;;;5052537;28;20032;-76
2021/09/06 02:48:42;;;;;;;23.95;13.88;;;;;;;;;;5052046;28;20410;-77
2021/09/06 02:51:07;;;;;;;25.58;14.15;;;;;;;;;;5027890;28;20030;-77
2021/09/06 02:53:33;;;;;;;36.95;14.68;;;;;;;;;;5031954;28;20041;-77
2021/09/06 02:55:59;;;;;;;30.85;14.43;;;;;;;;;;5032164;28;20380;-76
2021/09/06 02:58:26;;;;;;;39.80;14.98;;;;;;;;;;5036458;28;20124;-76
2021/09/06 03:00:52;;;;;;;31.38;15.13;;;;;;;;;;5035774;28;20044;-77
2021/09/06 03:03:18;;;;;;;23.83;14.90;;;;;;;;;;5035717;28;20029;-76
2021/09/06 03:05:45;;;;;;;18.75;14.25;;;;;;;;;;5035955;28;20068;-77
2021/09/06 03:08:13;;;;;;;21.40;14.50;;;;;;;;;;5019361;28;20036;-76
2021/09/06 03:10:39;;;;;;;31.50;14.45;;;;;;;;;;5035844;28;20038;-77
2021/09/06 03:13:06;;;;;;;24.63;14.77;;;;;;;;;;5019502;28;20092;-77
2021/09/06 03:15:31;;;;;;;28.25;13.82;;;;;;;;;;5035484;28;20041;-76
2021/09/06 03:17:58;;;;;;;37.58;14.50;;;;;;;;;;5035389;28;20026;-77
2021/09/06 03:20:39;;;;;;;22.65;15.40;;;;;;;;;;5021529;28;20030;-77
2021/09/06 03:23:05;;;;;;;20.52;15.20;;;;;;;;;;5018738;28;20030;-77
2021/09/06 03:25:30;;;;;;;22.85;16.00;;;;;;;;;;5018736;28;20094;-77
2021/09/06 03:27:56;;;;;;;32.13;15.57;;;;;;;;;;5035175;28;20539;-76
2021/09/06 03:30:21;;;;;;;56.05;16.13;;;;;;;;;;5019302;28;20022;-77
2021/09/06 03:32:49;;;;;;;22.70;15.43;;;;;;;;;;5018970;28;20381;-77
2021/09/06 03:35:17;;;;;;;33.15;16.55;;;;;;;;;;5036455;28;20041;-77
2021/09/06 03:37:44;;;;;;;20.67;15.10;;;;;;;;;;5019147;28;20069;-78
2021/09/06 03:40:10;;;;;;;63.72;17.80;;;;;;;;;;5018838;28;20080;-77
2021/09/06 03:42:36;;;;;;;33.30;15.65;;;;;;;;;;5048565;28;20036;-77
2021/09/06 03:45:02;;;;;;;28.80;15.68;;;;;;;;;;5058397;28;20494;-78
2021/09/06 03:47:28;;;;;;;30.73;15.73;;;;;;;;;;5074816;28;20064;-77
2021/09/06 03:49:58;;;;;;;68.50;16.13;;;;;;;;;;5074793;28;20034;-77
2021/09/06 03:52:24;;;;;;;24.80;14.18;;;;;;;;;;5075100;28;20471;-77
2021/09/06 03:54:50;;;;;;;33.15;15.30;;;;;;;;;;5057670;28;20033;-77
2021/09/06 03:57:15;;;;;;;32.88;15.65;;;;;;;;;;5058063;28;20127;-77
2021/09/06 03:59:43;;;;;;;52.67;14.90;;;;;;;;;;5058490;28;20057;-77
2021/09/06 04:02:08;;;;;;;26.40;14.98;;;;;;;;;;5058651;28;20052;-77
2021/09/06 04:04:34;;;;;;;35.10;15.65;;;;;;;;;;5035152;28;20041;-77
2021/09/06 04:07:05;;;;;;;32.95;17.35;;;;;;;;;;5018672;28;20029;-77
2021/09/06 04:09:37;;;;;;;29.90;17.05;;;;;;;;;;5019608;28;20120;-77
2021/09/06 04:12:03;;;;;;;30.40;16.80;;;;;;;;;;5025480;28;20024;-77
2021/09/06 04:14:32;;;;;;;36.47;15.88;;;;;;;;;;5075060;28;20517;-77
2021/09/06 04:16:59;;;;;;;29.38;16.50;;;;;;;;;;5074458;28;20056;-77
2021/09/06 04:19:30;;;;;;;74.40;17.48;;;;;;;;;;5057754;28;20032;-77
2021/09/06 04:22:01;;;;;;;53.15;17.13;;;;;;;;;;5074129;28;20052;-77
2021/09/06 04:24:27;;;;;;;60.30;17.70;;;;;;;;;;5058051;28;20174;-76
2021/09/06 04:26:57;;;;;;;41.40;16.67;;;;;;;;;;5038263;28;20542;-76
2021/09/06 04:29:23;;;;;;;49.78;17.52;;;;;;;;;;5034839;28;20041;-77
2021/09/06 04:31:50;;;;;;;27.95;18.55;;;;;;;;;;5039818;28;20057;-77
2021/09/06 04:34:15;;;;;;;31.08;15.65;;;;;;;;;;5038256;28;20312;-77
2021/09/06 04:36:41;;;;;;;76.97;19.38;;;;;;;;;;5036330;28;20041;-77
2021/09/06 04:39:07;;;;;;;93.95;21.30;;;;;;;;;;5017955;28;20060;-77
2021/09/06 04:41:33;;;;;;;60.08;21.55;;;;;;;;;;5037461;28;20453;-77
2021/09/06 04:43:59;;;;;;;44.25;21.48;;;;;;;;;;5037314;28;20048;-77
2021/09/06 04:46:25;;;;;;;34.85;19.67;;;;;;;;;;5037412;28;20029;-77
2021/09/06 04:48:52;;;;;;;38.63;20.25;;;;;;;;;;5037214;28;20033;-77
2021/09/06 04:51:19;;;;;;;57.53;18.80;;;;;;;;;;5053887;28;20025;-77
2021/09/06 04:53:46;;;;;;;66.90;19.88;;;;;;;;;;5053922;28;20094;-77
2021/09/06 04:56:14;;;;;;;76.88;19.92;;;;;;;;;;5037148;28;20044;-77
2021/09/06 04:58:41;;;;;;;50.17;19.60;;;;;;;;;;5053750;28;20033;-78
2021/09/06 05:01:07;;;;;;;42.38;19.40;;;;;;;;;;5051384;28;20238;-77
2021/09/06 05:03:33;;;;;;;72.20;20.58;;;;;;;;;;5033781;28;20022;-77
2021/09/06 05:05:59;;;;;;;28.85;18.67;;;;;;;;;;5033373;28;20037;-77
2021/09/06 05:08:26;;;;;;;37.40;19.30;;;;;;;;;;5016742;28;20029;-77
2021/09/06 05:10:53;;;;;;;30.98;18.95;;;;;;;;;;5033318;28;20033;-77
2021/09/06 05:13:19;;;;;;;43.10;18.20;;;;;;;;;;5033110;28;20025;-77
2021/09/06 05:15:44;;;;;;;32.75;19.52;;;;;;;;;;5033361;28;20029;-77
2021/09/06 05:18:11;;;;;;;65.97;19.10;;;;;;;;;;5017192;28;20041;-77
2021/09/06 05:20:41;;;;;;;36.92;18.00;;;;;;;;;;5032869;28;20119;-77
2021/09/06 05:23:07;;;;;;;34.22;19.17;;;;;;;;;;5033155;28;20442;-77
2021/09/06 05:25:34;;;;;;;34.80;19.35;;;;;;;;;;5033031;28;20053;-77
2021/09/06 05:28:00;;;;;;;26.95;17.25;;;;;;;;;;5016793;28;20029;-77
2021/09/06 05:30:26;;;;;;;33.05;18.45;;;;;;;;;;5033293;28;20175;-77
2021/09/06 05:32:51;;;;;;;72.50;18.75;;;;;;;;;;5016595;28;20113;-77
2021/09/06 05:35:17;;;;;;;57.67;17.58;;;;;;;;;;5016480;28;20546;-77
2021/09/06 05:37:45;;;;;;;32.50;17.95;;;;;;;;;;5033238;28;20025;-77
2021/09/06 05:40:12;;;;;;;66.20;19.08;;;;;;;;;;5016532;28;20572;-77
2021/09/06 05:42:37;;;;;;;69.75;18.50;;;;;;;;;;5016704;28;20124;-77
2021/09/06 05:45:04;;;;;;;29.63;18.30;;;;;;;;;;5016310;28;20129;-77
2021/09/06 05:47:36;;;;;;;54.42;16.63;;;;;;;;;;5032852;28;20082;-77
2021/09/06 05:50:05;;;;;;;43.35;18.20;;;;;;;;;;5016980;28;20395;-77
2021/09/06 05:52:38;;;;;;;74.13;18.25;;;;;;;;;;5033016;28;20082;-77
2021/09/06 05:55:04;;;;;;;26.25;16.35;;;;;;;;;;5016658;28;20033;-77
2021/09/06 05:57:30;;;;;;;25.02;17.08;;;;;;;;;;5016287;28;20447;-77
2021/09/06 05:59:56;;;;;;;28.63;17.35;;;;;;;;;;5016859;28;20387;-77
2021/09/06 06:02:22;;;;;;;30.67;18.25;;;;;;;;;;5016188;28;20029;-77
2021/09/06 06:04:47;;;;;;;33.47;17.77;;;;;;;;;;5015892;28;20041;-77
2021/09/06 06:07:12;;;;;;;23.77;17.38;;;;;;;;;;5015931;28;20156;-77
2021/09/06 06:09:38;;;;;;;27.58;18.08;;;;;;;;;;5015820;28;20048;-77
2021/09/06 06:12:06;;;;;;;40.17;16.90;;;;;;;;;;5016297;28;20056;-77
2021/09/06 06:14:31;;;;;;;36.05;17.33;;;;;;;;;;5067124;28;20024;-77
2021/09/06 06:16:57;;;;;;;29.02;17.38;;;;;;;;;;5055388;28;20470;-77
2021/09/06 06:19:30;;;;;;;47.55;17.48;;;;;;;;;;5056320;28;20131;-77
2021/09/06 06:22:23;;;;;;;57.45;17.05;;;;;;;;;;5058825;28;20417;-77
2021/09/06 06:24:53;;;;;;;37.88;18.10;;;;;;;;;;5055616;28;20063;-77
2021/09/06 06:27:48;;;;;;;24.38;16.60;;;;;;;;;;5019848;28;20037;-77
2021/09/06 06:30:13;;;;;;;24.05;16.73;;;;;;;;;;5031706;28;20033;-76
2021/09/06 06:32:39;;;;;;;23.83;16.15;;;;;;;;;;5016079;28;20083;-77
2021/09/06 06:35:14;;;;;;;33.65;16.40;;;;;;;;;;5031679;28;20825;-76
2021/09/06 06:37:40;;;;;;;26.35;15.68;;;;;;;;;;5034799;28;20029;-78
2021/09/06 06:40:06;;;;;;;38.30;15.52;;;;;;;;;;5016464;28;20037;-77
2021/09/06 06:42:35;;;;;;;100.25;17.05;;;;;;;;;;5035666;28;20029;-77
2021/09/06 06:45:05;;;;;;;32.53;16.63;;;;;;;;;;5057101;28;20455;-77
2021/09/06 06:47:32;;;;;;;33.05;15.95;;;;;;;;;;5057822;28;20024;-80
2021/09/06 06:49:58;;;;;;;30.30;15.35;;;;;;;;;;5056289;28;20040;-77
2021/09/06 06:52:24;;;;;;;22.08;14.70;;;;;;;;;;5072259;28;20036;-77
2021/09/06 06:54:49;;;;;;;22.23;15.82;;;;;;;;;;5054966;28;20028;-76
2021/09/06 06:57:15;;;;;;;23.85;14.80;;;;;;;;;;5074661;28;20123;-78
2021/09/06 06:59:41;;;;;;;21.85;15.40;;;;;;;;;;5079810;28;20025;-81
2021/09/06 07:02:10;;;;;;;25.67;15.48;;;;;;;;;;5077876;28;20052;-79
2021/09/06 07:04:35;;;;;;;26.45;15.00;;;;;;;;;;5057055;28;20040;-79
2021/09/06 07:07:03;;;;;;;29.75;15.20;;;;;;;;;;5060026;28;20090;-77
2021/09/06 07:09:30;;;;;;;19.25;14.10;;;;;;;;;;5078771;28;20033;-80
2021/09/06 07:11:55;;;;;;;21.70;15.05;;;;;;;;;;5066591;28;20033;-79
2021/09/06 07:14:21;;;;;;;23.27;14.90;;;;;;;;;;5060836;28;20078;-80
2021/09/06 07:16:46;;;;;;;19.02;13.93;;;;;;;;;;5051420;28;20040;-79
2021/09/06 07:19:13;;;;;;;19.73;13.63;;;;;;;;;;5039150;28;20098;-78
2021/09/06 07:21:40;;;;;;;19.48;13.90;;;;;;;;;;5040736;28;20028;-82
2021/09/06 07:24:05;;;;;;;17.98;13.55;;;;;;;;;;5052883;28;20029;-78
2021/09/06 07:26:30;;;;;;;27.90;16.83;;;;;;;;;;5018542;28;20041;-80
2021/09/06 07:28:59;;;;;;;33.15;15.50;;;;;;;;;;5035600;28;20442;-78
2021/09/06 07:31:24;;;;;;;23.30;15.13;;;;;;;;;;5018558;28;20025;-78
2021/09/06 07:33:50;;;;;;;22.60;14.95;;;;;;;;;;5035037;28;20033;-79
2021/09/06 07:36:16;;;;;;;19.08;13.98;;;;;;;;;;5021036;28;20061;-79
2021/09/06 07:38:42;;;;;;;20.23;14.23;;;;;;;;;;5035776;28;20047;-78
2021/09/06 07:41:08;;;;;;;17.98;13.63;;;;;;;;;;5055593;28;20036;-76
2021/09/06 07:43:35;;;;;;;17.38;13.23;;;;;;;;;;5037384;28;20029;-77
2021/09/06 07:46:01;;;;;;;19.90;14.60;;;;;;;;;;5038778;28;20044;-77
2021/09/06 07:48:26;;;;;;;19.10;13.82;;;;;;;;;;5038563;28;20048;-76
2021/09/06 07:50:54;;;;;;;17.42;13.32;;;;;;;;;;5054844;28;20025;-76
2021/09/06 07:53:22;;;;;;;16.60;12.85;;;;;;;;;;5074815;28;20123;-77
2021/09/06 07:55:48;;;;;;;19.77;13.88;;;;;;;;;;5058502;28;20115;-76
2021/09/06 07:58:15;;;;;;;19.15;13.63;;;;;;;;;;5059257;28;20068;-77
2021/09/06 08:00:41;;;;;;;20.83;13.88;;;;;;;;;;5075370;28;20041;-75
2021/09/06 08:03:07;;;;;;;18.48;13.60;;;;;;;;;;5076361;28;20124;-77
2021/09/06 08:05:35;;;;;;;17.73;13.65;;;;;;;;;;5058347;28;20170;-76
2021/09/06 08:08:06;;;;;;;17.67;13.13;;;;;;;;;;5075185;28;20390;-77
2021/09/06 08:10:33;;;;;;;18.83;13.45;;;;;;;;;;5061301;28;20020;-79
2021/09/06 08:12:59;;;;;;;18.15;13.15;;;;;;;;;;5054661;28;20032;-81
2021/09/06 08:15:28;;;;;;;15.00;11.85;;;;;;;;;;5023044;28;20036;-77
2021/09/06 08:17:56;;;;;;;19.13;13.43;;;;;;;;;;5018856;28;20037;-78
2021/09/06 08:20:24;;;;;;;16.30;12.73;;;;;;;;;;5035263;28;20084;-77
2021/09/06 08:22:51;;;;;;;17.90;13.32;;;;;;;;;;5035002;28;20029;-77
2021/09/06 08:25:17;;;;;;;19.30;14.52;;;;;;;;;;5018286;28;20033;-77
2021/09/06 08:27:43;;;;;;;17.98;13.02;;;;;;;;;;5050966;28;20030;-77
2021/09/06 08:30:13;;;;;;;16.25;12.18;;;;;;;;;;5048511;28;20483;-77
2021/09/06 08:32:43;;;;;;;20.90;13.40;;;;;;;;;;5018436;28;20468;-77
2021/09/06 08:35:11;;;;;;;14.75;11.88;;;;;;;;;;5028519;28;20057;-77
2021/09/06 08:37:38;;;;;;;17.88;13.80;;;;;;;;;;5018387;28;20537;-77
2021/09/06 08:40:05;;;;;;;18.15;13.35;;;;;;;;;;5037872;28;20052;-78
2021/09/06 08:42:31;;;;;;;15.93;12.55;;;;;;;;;;5038823;28;20067;-77
2021/09/06 08:44:57;;;;;;;18.38;12.18;;;;;;;;;;5054829;28;20502;-77
2021/09/06 08:47:23;;;;;;;15.13;11.90;;;;;;;;;;5037410;28;20036;-77
2021/09/06 08:49:49;;;;;;;96.53;15.88;;;;;;;;;;5054802;28;20036;-78
2021/09/06 08:52:15;;;;;;;19.50;11.27;;;;;;;;;;5054169;28;20029;-77
2021/09/06 08:54:41;;;;;;;14.57;11.20;;;;;;;;;;5037069;28;20132;-77
2021/09/06 08:57:08;;;;;;;14.75;11.18;;;;;;;;;;5037247;28;20125;-77
2021/09/06 08:59:34;;;;;;;14.70;11.77;;;;;;;;;;5054144;28;20025;-77
2021/09/06 09:02:22;;;;;;;14.30;10.55;;;;;;;;;;5054537;28;20066;-77
2021/09/06 09:05:11;;;;;;;18.15;11.77;;;;;;;;;;5050875;28;20055;-77
2021/09/06 09:08:07;;;;;;;14.63;11.40;;;;;;;;;;5055343;28;20080;-77
2021/09/06 09:10:50;;;;;;;16.13;11.25;;;;;;;;;;5040824;28;20368;-77
2021/09/06 09:13:40;;;;;;;17.23;11.75;;;;;;;;;;5045670;28;20073;-78
2021/09/06 09:16:42;;;;;;;;;;;;;;;;;;5025986;28;20025;-77
2021/09/06 09:19:26;;;;;;;19.75;12.40;;;;;;;;;;5036278;28;19963;-77
2021/09/06 09:22:35;;;;;;;15.98;12.00;;;;;;;;;;5037285;28;20041;-77
2021/09/06 09:25:22;;;;;;;19.73;13.45;;;;;;;;;;5049183;28;20410;-77
2021/09/06 09:28:09;;;;;;;15.43;11.25;;;;;;;;;;5055992;28;20048;-78
2021/09/06 09:30:50;;;;;;;14.63;10.75;;;;;;;;;;5041422;28;20123;-78
2021/09/06 09:33:23;;;;;;;16.88;11.32;;;;;;;;;;5055683;28;20580;-78
2021/09/06 09:36:04;;;;;;;16.77;11.95;;;;;;;;;;5056459;28;20036;-77
2021/09/06 09:38:35;;;;;;;17.95;13.13;;;;;;;;;;5042053;28;20709;-78
2021/09/06 09:41:03;;;;;;;19.27;14.00;;;;;;;;;;5076365;28;20090;-78
2021/09/06 09:43:30;;;;;;;19.13;11.95;;;;;;;;;;5076099;28;20037;-77
2021/09/06 09:46:02;;;;;;;15.50;11.32;;;;;;;;;;5059419;28;20115;-78
2021/09/06 09:48:44;;;;;;;16.60;12.38;;;;;;;;;;5076887;28;20119;-78
2021/09/06 09:51:12;;;;;;;16.50;12.50;;;;;;;;;;5078145;28;20429;-78
2021/09/06 09:53:37;;;;;;;18.45;13.30;;;;;;;;;;5075775;28;20029;-79
2021/09/06 09:56:05;;;;;;;14.93;11.15;;;;;;;;;;5076571;28;20028;-78
2021/09/06 09:58:30;;;;;;;16.40;11.60;;;;;;;;;;5074256;28;20032;-77
2021/09/06 10:01:01;;;;;;;18.35;13.65;;;;;;;;;;5056669;28;20060;-77
2021/09/06 10:03:26;;;;;;;17.83;13.38;;;;;;;;;;5059404;28;20509;-79
2021/09/06 10:05:54;;;;;;;13.85;12.02;;;;;;;;;;5075649;28;20040;-81
2021/09/06 10:08:20;;;;;;;15.32;12.40;;;;;;;;;;5051057;28;20053;-77
2021/09/06 10:10:47;;;;;;;16.98;13.00;;;;;;;;;;5055487;28;20102;-79
2021/09/06 10:13:15;;;;;;;15.48;12.18;;;;;;;;;;5052958;28;20029;-79
2021/09/06 10:16:03;;;;;;;15.60;11.70;;;;;;;;;;5036288;28;20041;-78
2021/09/06 10:18:41;;;;;;;13.35;10.65;;;;;;;;;;5025328;28;20499;-79
2021/09/06 10:21:24;;;;;;;14.10;11.05;;;;;;;;;;5064384;28;20120;-79
2021/09/06 10:23:52;;;;;;;14.80;12.25;;;;;;;;;;5046715;28;20037;-80
2021/09/06 10:26:19;;;;;;;17.27;12.50;;;;;;;;;;5061663;28;20502;-78
2021/09/06 10:28:44;;;;;;;14.00;11.20;;;;;;;;;;5057008;28;20032;-78
2021/09/06 10:31:20;;;;;;;17.70;12.90;;;;;;;;;;5061320;28;20033;-80
2021/09/06 10:33:58;;;;;;;15.55;11.80;;;;;;;;;;5047641;28;20124;-80
2021/09/06 10:36:23;;;;;;;17.02;13.00;;;;;;;;;;5035367;28;20114;-82
2021/09/06 10:38:52;;;;;;;19.45;12.90;;;;;;;;;;5037638;28;20033;-79
2021/09/06 10:41:22;;;;;;;12.75;10.98;;;;;;;;;;5058079;28;20033;-80
2021/09/06 10:43:52;;;;;;;14.40;11.60;;;;;;;;;;5043669;28;20039;-78
2021/09/06 10:46:21;;;;;;;15.27;11.73;;;;;;;;;;5061919;28;20032;-78
2021/09/06 10:48:50;;;;;;;16.50;12.50;;;;;;;;;;5057848;28;20112;-79
2021/09/06 10:51:28;;;;;;;14.05;11.48;;;;;;;;;;5054962;28;20029;-77
2021/09/06 10:53:59;;;;;;;12.98;10.70;;;;;;;;;;5058896;28;20453;-79
2021/09/06 10:56:26;;;;;;;15.05;12.15;;;;;;;;;;5058506;28;20040;-79
2021/09/06 10:58:54;;;;;;;13.75;11.98;;;;;;;;;;5038451;28;20039;-78
2021/09/06 11:01:20;;;;;;;14.90;11.52;;;;;;;;;;5054608;28;20032;-77
2021/09/06 11:03:50;;;;;;;15.75;12.70;;;;;;;;;;5053326;28;20134;-77
2021/09/06 11:06:24;;;;;;;19.45;12.25;;;;;;;;;;5053803;28;20029;-77
2021/09/06 11:08:50;;;;;;;14.38;11.38;;;;;;;;;;5044378;28;20419;-76
2021/09/06 11:11:16;;;;;;;22.10;11.88;;;;;;;;;;5035173;28;20091;-77
2021/09/06 11:13:47;;;;;;;14.73;12.05;;;;;;;;;;5053096;28;20056;-77
2021/09/06 11:16:18;;;;;;;14.13;11.10;;;;;;;;;;5052897;28;20037;-76
2021/09/06 11:18:47;;;;;;;12.98;11.45;;;;;;;;;;5054730;28;20517;-76
2021/09/06 11:21:17;;;;;;;13.85;11.07;;;;;;;;;;5057026;28;20037;-76
2021/09/06 11:23:44;;;;;;;15.20;10.70;;;;;;;;;;5056711;28;20033;-79
2021/09/06 11:26:26;;;;;;;14.02;10.70;;;;;;;;;;5054783;28;20064;-77
2021/09/06 11:28:51;;;;;;;23.67;12.38;;;;;;;;;;5057041;28;20033;-76
2021/09/06 11:31:22;;;;;;;13.18;10.63;;;;;;;;;;5055571;28;20414;-76
2021/09/06 11:33:56;;;;;;;15.63;10.90;;;;;;;;;;5055321;28;20056;-76
2021/09/06 11:36:22;;;;;;;15.15;11.13;;;;;;;;;;5055633;28;20418;-76
2021/09/06 11:38:48;;;;;;;13.80;11.20;;;;;;;;;;5054974;28;20493;-76
2021/09/06 11:41:14;;;;;;;13.70;11.55;;;;;;;;;;5055480;28;20083;-76
2021/09/06 11:43:40;;;;;;;12.93;10.27;;;;;;;;;;5055903;28;20041;-76
2021/09/06 11:46:06;;;;;;;13.43;10.73;;;;;;;;;;5056094;28;20033;-74
2021/09/06 11:48:43;;;;;;;19.73;11.93;;;;;;;;;;5055987;28;20095;-74
2021/09/06 11:51:09;;;;;;;14.40;10.80;;;;;;;;;;5056245;28;20082;-74
2021/09/06 11:53:35;;;;;;;12.68;9.75;;;;;;;;;;5056070;28;20033;-74
2021/09/06 11:56:00;;;;;;;13.38;9.52;;;;;;;;;;5056171;28;20033;-75
2021/09/06 11:58:27;;;;;;;22.13;11.30;;;;;;;;;;5064843;28;20437;-74
2021/09/06 12:01:03;;;;;;;17.42;9.38;;;;;;;;;;5076084;28;20033;-74
2021/09/06 12:03:29;;;;;;;12.02;9.70;;;;;;;;;;5074092;28;20040;-74
2021/09/06 12:06:03;;;;;;;11.68;9.73;;;;;;;;;;5058468;28;20383;-75
2021/09/06 12:08:29;;;;;;;12.70;9.37;;;;;;;;;;5075874;28;20033;-74
2021/09/06 12:11:10;;;;;;;10.02;8.63;;;;;;;;;;5061171;28;20295;-74
2021/09/06 12:13:38;;;;;;;11.07;9.30;;;;;;;;;;5055670;28;20029;-74
2021/09/06 12:16:11;;;;;;;15.00;9.25;;;;;;;;;;5054663;28;20475;-74
2021/09/06 12:18:39;;;;;;;9.57;8.38;;;;;;;;;;5055623;28;20032;-74
2021/09/06 12:21:08;;;;;;;12.48;8.98;;;;;;;;;;5055655;28;20090;-74
2021/09/06 12:23:36;;;;;;;9.48;7.50;;;;;;;;;;5055502;28;20029;-74
2021/09/06 12:26:02;;;;;;;9.98;8.90;;;;;;;;;;5055554;28;20029;-74
2021/09/06 12:28:28;;;;;;;9.98;8.55;;;;;;;;;;5053531;28;20073;-74
2021/09/06 12:31:01;;;;;;;13.93;9.25;;;;;;;;;;5055487;28;20120;-74
2021/09/06 12:33:27;;;;;;;9.18;8.25;;;;;;;;;;5053506;28;20159;-74
2021/09/06 12:35:52;;;;;;;11.38;9.35;;;;;;;;;;5055438;28;20120;-74
2021/09/06 12:38:18;;;;;;;10.57;8.65;;;;;;;;;;5054050;28;20033;-74
2021/09/06 12:40:43;;;;;;;10.88;8.95;;;;;;;;;;5053346;28;20227;-74
2021/09/06 12:43:09;;;;;;;10.45;9.25;;;;;;;;;;5055141;28;20585;-74
2021/09/06 12:45:35;;;;;;;35.72;9.75;;;;;;;;;;5054076;28;20107;-74
2021/09/06 12:48:00;;;;;;;11.48;9.38;;;;;;;;;;5055121;28;20115;-74
2021/09/06 12:50:26;;;;;;;15.35;9.60;;;;;;;;;;5037259;28;20486;-75
2021/09/06 12:52:53;;;;;;;11.38;9.38;;;;;;;;;;5053430;28;20037;-74
2021/09/06 12:55:18;;;;;;;10.77;8.98;;;;;;;;;;5053862;28;20040;-74
2021/09/06 12:57:44;;;;;;;11.70;9.38;;;;;;;;;;5053357;28;20391;-74
2021/09/06 13:00:10;;;;;;;11.05;9.48;;;;;;;;;;5053052;28;20040;-76
2021/09/06 13:02:35;;;;;;;10.32;8.90;;;;;;;;;;5053227;28;20090;-75
2021/09/06 13:05:01;;;;;;;10.57;8.85;;;;;;;;;;5036842;28;20043;-76
2021/09/06 13:07:26;;;;;;;11.45;8.90;;;;;;;;;;5036852;28;20041;-76
2021/09/06 13:09:52;;;;;;;10.68;9.57;;;;;;;;;;5054610;28;20083;-77
2021/09/06 13:12:18;;;;;;;13.95;10.70;;;;;;;;;;5053384;28;20132;-76
2021/09/06 13:14:43;;;;;;;13.13;8.82;;;;;;;;;;5053350;28;20043;-76
2021/09/06 13:17:08;;;;;;;10.32;9.23;;;;;;;;;;5066152;28;20485;-76
2021/09/06 13:19:34;;;;;;;13.45;10.70;;;;;;;;;;5055873;28;20071;-78
2021/09/06 13:22:01;;;;;;;12.57;9.75;;;;;;;;;;5054775;28;20025;-77
2021/09/06 13:24:27;;;;;;;11.35;9.38;;;;;;;;;;5055978;28;20482;-80
2021/09/06 13:26:52;;;;;;;11.90;9.48;;;;;;;;;;5058021;28;20041;-79
2021/09/06 13:29:18;;;;;;;14.63;10.23;;;;;;;;;;5041221;28;20029;-82
2021/09/06 13:31:44;;;;;;;15.25;10.13;;;;;;;;;;5058719;28;20040;-79
2021/09/06 13:34:10;;;;;;;14.18;10.23;;;;;;;;;;5058906;28;20056;-76
2021/09/06 13:36:36;;;;;;;10.98;9.60;;;;;;;;;;5036887;28;20116;-77
2021/09/06 13:39:02;;;;;;;17.98;9.95;;;;;;;;;;5036192;28;20044;-77
2021/09/06 13:41:28;;;;;;;12.30;9.80;;;;;;;;;;5052405;28;20036;-77
2021/09/06 13:43:53;;;;;;;14.15;10.05;;;;;;;;;;5054051;28;20426;-77
2021/09/06 13:46:18;;;;;;;14.48;9.32;;;;;;;;;;5054169;28;20506;-77
2021/09/06 13:48:44;;;;;;;13.65;9.73;;;;;;;;;;5037686;28;20086;-78
2021/09/06 13:51:09;;;;;;;12.50;10.57;;;;;;;;;;5034341;28;20479;-78
2021/09/06 13:53:36;;;;;;;12.63;10.13;;;;;;;;;;5036392;28;20044;-79
2021/09/06 13:56:02;;;;;;;15.38;10.30;;;;;;;;;;5019910;28;20044;-79
2021/09/06 13:58:28;;;;;;;14.68;10.20;;;;;;;;;;5071363;28;20064;-79
2021/09/06 14:00:53;;;;;;;13.18;10.20;;;;;;;;;;5078171;28;20027;-80
2021/09/06 14:03:19;;;;;;;12.13;10.65;;;;;;;;;;5062843;28;20068;-79
2021/09/06 14:05:45;;;;;;;20.98;11.10;;;;;;;;;;5040105;28;20044;-79
2021/09/06 14:08:10;;;;;;;20.33;11.23;;;;;;;;;;5040278;28;20063;-78
2021/09/06 14:10:36;;;;;;;14.95;11.38;;;;;;;;;;5056155;28;20028;-79
2021/09/06 14:13:02;;;;;;;23.48;11.43;;;;;;;;;;5078452;28;20478;-79
2021/09/06 14:15:28;;;;;;;21.05;11.10;;;;;;;;;;5079102;28;20036;-78
2021/09/06 14:17:53;;;;;;;12.52;10.05;;;;;;;;;;5061568;28;20036;-79
2021/09/06 14:20:19;;;;;;;14.18;10.57;;;;;;;;;;5076800;28;20504;-78
2021/09/06 14:22:45;;;;;;;13.55;10.60;;;;;;;;;;5076619;28;20033;-78
2021/09/06 14:25:11;;;;;;;13.50;11.38;;;;;;;;;;5059669;28;20036;-79